Terminal Aerodrome Forecast
Issued by NWS

Current Version | Previous Version | Graphics & Text | Print | Product List | Glossary On
Versions: 1 2 3 4 5 6 7 8 9 10 11 12 13 14
878
FTUS41 KILN 211129
TAFLCK
TAF
KLCK 211129Z 2112/2212 36006KT 5SM BR OVC007
     FM211400 36006KT 6SM BR OVC012
     FM211700 36006KT P6SM BKN022
     FM211900 34006KT P6SM BKN200
     FM220200 33010G16KT P6SM BKN100
     FM220400 34012G22KT P6SM BKN100
     FM220800 36012G22KT P6SM SCT250=

USA.gov is the U.S. government's official web portal to all federal, state and local government web resources and services.